sensor_id;sensor_type;location;lat;lon;timestamp;temperature;humidity
15554;DHT22;7878;44.632;10.942;2023-05-23T00:01:03;21.60;98.10
15554;DHT22;7878;44.632;10.942;2023-05-23T00:03:32;21.50;97.90
15554;DHT22;7878;44.632;10.942;2023-05-23T00:05:58;21.50;98.00
15554;DHT22;7878;44.632;10.942;2023-05-23T00:08:24;21.50;97.80
15554;DHT22;7878;44.632;10.942;2023-05-23T00:10:50;21.50;97.80
15554;DHT22;7878;44.632;10.942;2023-05-23T00:13:16;21.40;97.90
15554;DHT22;7878;44.632;10.942;2023-05-23T00:15:42;21.40;98.00
15554;DHT22;7878;44.632;10.942;2023-05-23T00:18:11;21.40;98.00
15554;DHT22;7878;44.632;10.942;2023-05-23T00:20:38;21.40;98.10
15554;DHT22;7878;44.632;10.942;2023-05-23T00:23:05;21.40;98.00
15554;DHT22;7878;44.632;10.942;2023-05-23T00:25:32;21.40;97.80
15554;DHT22;7878;44.632;10.942;2023-05-23T00:28:01;21.40;97.90
15554;DHT22;7878;44.632;10.942;2023-05-23T00:30:31;21.40;98.10
15554;DHT22;7878;44.632;10.942;2023-05-23T00:32:57;21.30;98.20
15554;DHT22;7878;44.632;10.942;2023-05-23T00:35:23;21.30;98.10
15554;DHT22;7878;44.632;10.942;2023-05-23T00:37:49;21.30;98.10
15554;DHT22;7878;44.632;10.942;2023-05-23T00:40:19;21.20;97.90
15554;DHT22;7878;44.632;10.942;2023-05-23T00:42:46;21.20;98.10
15554;DHT22;7878;44.632;10.942;2023-05-23T00:45:14;21.20;98.10
15554;DHT22;7878;44.632;10.942;2023-05-23T00:47:41;21.20;98.00
15554;DHT22;7878;44.632;10.942;2023-05-23T00:50:10;21.10;97.90
15554;DHT22;7878;44.632;10.942;2023-05-23T00:52:37;21.10;98.10
15554;DHT22;7878;44.632;10.942;2023-05-23T00:55:04;21.10;98.10
15554;DHT22;7878;44.632;10.942;2023-05-23T00:57:29;21.10;98.10
15554;DHT22;7878;44.632;10.942;2023-05-23T00:59:55;21.10;98.10
15554;DHT22;7878;44.632;10.942;2023-05-23T01:02:21;21.00;98.10
15554;DHT22;7878;44.632;10.942;2023-05-23T01:04:48;21.00;98.00
15554;DHT22;7878;44.632;10.942;2023-05-23T01:07:21;21.00;98.00
15554;DHT22;7878;44.632;10.942;2023-05-23T01:09:47;21.10;98.00
15554;DHT22;7878;44.632;10.942;2023-05-23T01:15:04;21.00;97.90
15554;DHT22;7878;44.632;10.942;2023-05-23T01:17:56;21.00;98.10
15554;DHT22;7878;44.632;10.942;2023-05-23T01:20:29;21.00;98.60
15554;DHT22;7878;44.632;10.942;2023-05-23T01:28:22;21.10;98.30
15554;DHT22;7878;44.632;10.942;2023-05-23T01:30:51;21.00;98.00
15554;DHT22;7878;44.632;10.942;2023-05-23T01:33:19;21.00;97.90
15554;DHT22;7878;44.632;10.942;2023-05-23T01:35:45;21.00;97.80
15554;DHT22;7878;44.632;10.942;2023-05-23T01:38:11;21.00;97.80
15554;DHT22;7878;44.632;10.942;2023-05-23T01:40:37;21.00;97.80
15554;DHT22;7878;44.632;10.942;2023-05-23T01:43:03;21.00;97.80
15554;DHT22;7878;44.632;10.942;2023-05-23T01:45:29;21.10;97.80
15554;DHT22;7878;44.632;10.942;2023-05-23T01:47:56;21.00;97.70
15554;DHT22;7878;44.632;10.942;2023-05-23T01:50:23;21.00;97.80
15554;DHT22;7878;44.632;10.942;2023-05-23T01:52:49;21.00;97.70
15554;DHT22;7878;44.632;10.942;2023-05-23T01:55:16;21.00;97.70
15554;DHT22;7878;44.632;10.942;2023-05-23T01:57:49;21.00;97.60
15554;DHT22;7878;44.632;10.942;2023-05-23T02:00:15;21.00;97.70
15554;DHT22;7878;44.632;10.942;2023-05-23T02:02:41;21.00;97.70
15554;DHT22;7878;44.632;10.942;2023-05-23T02:05:09;21.00;97.60
15554;DHT22;7878;44.632;10.942;2023-05-23T02:07:35;20.90;97.70
15554;DHT22;7878;44.632;10.942;2023-05-23T02:10:02;21.00;97.60
15554;DHT22;7878;44.632;10.942;2023-05-23T02:12:28;20.90;97.60
15554;DHT22;7878;44.632;10.942;2023-05-23T02:14:54;20.90;97.60
15554;DHT22;7878;44.632;10.942;2023-05-23T02:17:20;20.90;97.70
15554;DHT22;7878;44.632;10.942;2023-05-23T02:19:47;20.90;97.70
15554;DHT22;7878;44.632;10.942;2023-05-23T02:22:13;20.80;97.70
15554;DHT22;7878;44.632;10.942;2023-05-23T02:24:39;20.80;97.80
15554;DHT22;7878;44.632;10.942;2023-05-23T02:27:05;20.80;98.00
15554;DHT22;7878;44.632;10.942;2023-05-23T02:29:31;20.80;98.00
15554;DHT22;7878;44.632;10.942;2023-05-23T02:31:57;20.70;98.00
15554;DHT22;7878;44.632;10.942;2023-05-23T02:34:22;20.70;97.90
15554;DHT22;7878;44.632;10.942;2023-05-23T02:36:48;20.70;97.90
15554;DHT22;7878;44.632;10.942;2023-05-23T02:39:14;20.70;98.10
15554;DHT22;7878;44.632;10.942;2023-05-23T02:41:39;20.70;98.00
15554;DHT22;7878;44.632;10.942;2023-05-23T02:44:05;20.70;98.00
15554;DHT22;7878;44.632;10.942;2023-05-23T02:46:30;20.60;98.00
15554;DHT22;7878;44.632;10.942;2023-05-23T02:48:56;20.60;98.00
15554;DHT22;7878;44.632;10.942;2023-05-23T02:51:22;20.60;98.10
15554;DHT22;7878;44.632;10.942;2023-05-23T02:53:47;20.50;98.00
15554;DHT22;7878;44.632;10.942;2023-05-23T02:56:13;20.50;98.00
15554;DHT22;7878;44.632;10.942;2023-05-23T02:58:40;20.50;98.10
15554;DHT22;7878;44.632;10.942;2023-05-23T03:01:06;20.50;98.20
15554;DHT22;7878;44.632;10.942;2023-05-23T03:03:33;20.50;98.20
15554;DHT22;7878;44.632;10.942;2023-05-23T03:05:59;20.50;98.20
15554;DHT22;7878;44.632;10.942;2023-05-23T03:08:24;20.40;98.30
15554;DHT22;7878;44.632;10.942;2023-05-23T03:10:50;20.40;98.30
15554;DHT22;7878;44.632;10.942;2023-05-23T03:13:17;20.40;98.70
15554;DHT22;7878;44.632;10.942;2023-05-23T03:15:43;20.30;98.30
15554;DHT22;7878;44.632;10.942;2023-05-23T03:18:08;20.30;98.30
15554;DHT22;7878;44.632;10.942;2023-05-23T03:20:35;20.30;98.40
15554;DHT22;7878;44.632;10.942;2023-05-23T03:23:00;20.30;98.40
15554;DHT22;7878;44.632;10.942;2023-05-23T03:25:26;20.30;98.50
15554;DHT22;7878;44.632;10.942;2023-05-23T03:27:52;20.30;98.40
15554;DHT22;7878;44.632;10.942;2023-05-23T03:30:17;20.20;98.20
15554;DHT22;7878;44.632;10.942;2023-05-23T03:32:43;20.20;98.50
15554;DHT22;7878;44.632;10.942;2023-05-23T03:35:09;20.20;98.40
15554;DHT22;7878;44.632;10.942;2023-05-23T03:37:35;20.20;98.40
15554;DHT22;7878;44.632;10.942;2023-05-23T03:40:01;20.20;98.40
15554;DHT22;7878;44.632;10.942;2023-05-23T03:42:28;20.30;98.40
15554;DHT22;7878;44.632;10.942;2023-05-23T03:44:54;20.30;98.10
15554;DHT22;7878;44.632;10.942;2023-05-23T03:47:20;20.20;98.20
15554;DHT22;7878;44.632;10.942;2023-05-23T03:49:45;20.20;98.30
15554;DHT22;7878;44.632;10.942;2023-05-23T03:52:11;20.20;98.20
15554;DHT22;7878;44.632;10.942;2023-05-23T03:54:37;20.20;98.30
15554;DHT22;7878;44.632;10.942;2023-05-23T03:57:02;20.20;98.20
15554;DHT22;7878;44.632;10.942;2023-05-23T03:59:28;20.20;98.30
15554;DHT22;7878;44.632;10.942;2023-05-23T04:01:54;20.20;98.20
15554;DHT22;7878;44.632;10.942;2023-05-23T04:04:23;20.30;98.30
15554;DHT22;7878;44.632;10.942;2023-05-23T04:06:49;20.30;98.20
15554;DHT22;7878;44.632;10.942;2023-05-23T04:09:15;20.30;98.10
15554;DHT22;7878;44.632;10.942;2023-05-23T04:11:42;20.20;98.00
15554;DHT22;7878;44.632;10.942;2023-05-23T04:14:07;20.20;98.10
15554;DHT22;7878;44.632;10.942;2023-05-23T04:16:33;20.20;98.10
15554;DHT22;7878;44.632;10.942;2023-05-23T04:19:00;20.20;98.00
15554;DHT22;7878;44.632;10.942;2023-05-23T04:21:26;20.20;98.20
15554;DHT22;7878;44.632;10.942;2023-05-23T04:23:52;20.20;98.10
15554;DHT22;7878;44.632;10.942;2023-05-23T04:26:18;20.20;98.00
15554;DHT22;7878;44.632;10.942;2023-05-23T04:28:45;20.30;98.30
15554;DHT22;7878;44.632;10.942;2023-05-23T04:31:11;20.20;98.00
15554;DHT22;7878;44.632;10.942;2023-05-23T04:33:37;20.30;98.20
15554;DHT22;7878;44.632;10.942;2023-05-23T04:36:03;20.30;98.20
15554;DHT22;7878;44.632;10.942;2023-05-23T04:38:29;20.30;98.20
15554;DHT22;7878;44.632;10.942;2023-05-23T04:40:54;20.20;98.30
15554;DHT22;7878;44.632;10.942;2023-05-23T04:43:22;20.20;98.20
15554;DHT22;7878;44.632;10.942;2023-05-23T04:45:51;20.20;98.10
15554;DHT22;7878;44.632;10.942;2023-05-23T04:48:19;20.30;98.30
15554;DHT22;7878;44.632;10.942;2023-05-23T04:50:46;20.30;98.20
15554;DHT22;7878;44.632;10.942;2023-05-23T04:53:13;20.30;98.20
15554;DHT22;7878;44.632;10.942;2023-05-23T04:55:39;20.30;98.20
15554;DHT22;7878;44.632;10.942;2023-05-23T04:58:04;20.30;98.30
15554;DHT22;7878;44.632;10.942;2023-05-23T05:00:30;20.30;98.40
15554;DHT22;7878;44.632;10.942;2023-05-23T05:02:56;20.30;98.50
15554;DHT22;7878;44.632;10.942;2023-05-23T05:05:21;20.40;98.40
15554;DHT22;7878;44.632;10.942;2023-05-23T05:07:47;20.40;98.40
15554;DHT22;7878;44.632;10.942;2023-05-23T05:10:13;20.40;98.50
15554;DHT22;7878;44.632;10.942;2023-05-23T05:12:44;20.40;98.50
15554;DHT22;7878;44.632;10.942;2023-05-23T05:15:11;20.50;98.70
15554;DHT22;7878;44.632;10.942;2023-05-23T05:17:38;20.50;98.60
15554;DHT22;7878;44.632;10.942;2023-05-23T05:20:04;20.50;98.60
15554;DHT22;7878;44.632;10.942;2023-05-23T05:22:37;20.60;98.60
15554;DHT22;7878;44.632;10.942;2023-05-23T05:25:06;20.60;99.00
15554;DHT22;7878;44.632;10.942;2023-05-23T05:27:32;20.60;98.70
15554;DHT22;7878;44.632;10.942;2023-05-23T05:29:58;20.70;99.00
15554;DHT22;7878;44.632;10.942;2023-05-23T05:32:29;20.70;98.90
15554;DHT22;7878;44.632;10.942;2023-05-23T05:35:01;20.80;98.90
15554;DHT22;7878;44.632;10.942;2023-05-23T05:37:27;20.80;98.90
15554;DHT22;7878;44.632;10.942;2023-05-23T05:39:54;20.90;99.00
15554;DHT22;7878;44.632;10.942;2023-05-23T05:42:20;20.90;99.00
15554;DHT22;7878;44.632;10.942;2023-05-23T05:44:46;21.00;99.00
15554;DHT22;7878;44.632;10.942;2023-05-23T05:47:12;21.10;99.10
15554;DHT22;7878;44.632;10.942;2023-05-23T05:49:38;21.20;99.10
15554;DHT22;7878;44.632;10.942;2023-05-23T05:52:05;21.40;99.10
15554;DHT22;7878;44.632;10.942;2023-05-23T05:54:31;21.60;99.20
15554;DHT22;7878;44.632;10.942;2023-05-23T05:56:57;21.70;99.10
15554;DHT22;7878;44.632;10.942;2023-05-23T05:59:23;21.90;99.00
15554;DHT22;7878;44.632;10.942;2023-05-23T06:01:48;22.00;98.90
15554;DHT22;7878;44.632;10.942;2023-05-23T06:04:16;22.10;98.90
15554;DHT22;7878;44.632;10.942;2023-05-23T06:06:41;22.20;99.10
15554;DHT22;7878;44.632;10.942;2023-05-23T06:09:07;22.20;99.00
15554;DHT22;7878;44.632;10.942;2023-05-23T06:11:33;22.20;99.00
15554;DHT22;7878;44.632;10.942;2023-05-23T06:13:58;22.30;99.30
15554;DHT22;7878;44.632;10.942;2023-05-23T06:16:24;22.30;99.00
15554;DHT22;7878;44.632;10.942;2023-05-23T06:18:50;22.40;99.00
15554;DHT22;7878;44.632;10.942;2023-05-23T06:21:15;22.50;99.10
15554;DHT22;7878;44.632;10.942;2023-05-23T06:23:41;22.50;99.10
15554;DHT22;7878;44.632;10.942;2023-05-23T06:26:06;22.50;99.10
15554;DHT22;7878;44.632;10.942;2023-05-23T06:28:36;22.60;99.10
15554;DHT22;7878;44.632;10.942;2023-05-23T06:31:02;22.60;99.10
15554;DHT22;7878;44.632;10.942;2023-05-23T06:33:28;22.70;99.20
15554;DHT22;7878;44.632;10.942;2023-05-23T06:35:55;22.90;99.20
15554;DHT22;7878;44.632;10.942;2023-05-23T06:38:21;23.00;99.30
15554;DHT22;7878;44.632;10.942;2023-05-23T06:40:47;23.00;99.20
15554;DHT22;7878;44.632;10.942;2023-05-23T06:43:13;23.10;99.20
15554;DHT22;7878;44.632;10.942;2023-05-23T06:45:38;23.10;99.30
15554;DHT22;7878;44.632;10.942;2023-05-23T06:48:04;23.20;99.30
15554;DHT22;7878;44.632;10.942;2023-05-23T06:50:30;23.20;99.10
15554;DHT22;7878;44.632;10.942;2023-05-23T06:52:56;23.20;99.10
15554;DHT22;7878;44.632;10.942;2023-05-23T06:55:22;23.20;99.10
15554;DHT22;7878;44.632;10.942;2023-05-23T06:57:48;23.20;99.00
15554;DHT22;7878;44.632;10.942;2023-05-23T07:00:17;23.20;98.90
15554;DHT22;7878;44.632;10.942;2023-05-23T07:02:43;23.20;98.90
15554;DHT22;7878;44.632;10.942;2023-05-23T07:05:13;23.30;98.90
15554;DHT22;7878;44.632;10.942;2023-05-23T07:07:40;23.30;98.80
15554;DHT22;7878;44.632;10.942;2023-05-23T07:10:06;23.40;98.80
15554;DHT22;7878;44.632;10.942;2023-05-23T07:12:32;23.40;98.70
15554;DHT22;7878;44.632;10.942;2023-05-23T07:14:57;23.40;98.90
15554;DHT22;7878;44.632;10.942;2023-05-23T07:17:23;23.40;98.50
15554;DHT22;7878;44.632;10.942;2023-05-23T07:19:49;23.50;98.60
15554;DHT22;7878;44.632;10.942;2023-05-23T07:22:14;23.50;98.50
15554;DHT22;7878;44.632;10.942;2023-05-23T07:24:40;23.50;98.50
15554;DHT22;7878;44.632;10.942;2023-05-23T07:27:06;23.50;98.50
15554;DHT22;7878;44.632;10.942;2023-05-23T07:29:31;23.60;98.50
15554;DHT22;7878;44.632;10.942;2023-05-23T07:31:57;23.60;98.50
15554;DHT22;7878;44.632;10.942;2023-05-23T07:34:23;23.70;98.60
15554;DHT22;7878;44.632;10.942;2023-05-23T07:36:51;23.70;98.60
15554;DHT22;7878;44.632;10.942;2023-05-23T07:39:16;23.80;98.40
15554;DHT22;7878;44.632;10.942;2023-05-23T07:41:49;23.80;98.30
15554;DHT22;7878;44.632;10.942;2023-05-23T07:44:17;23.80;98.20
15554;DHT22;7878;44.632;10.942;2023-05-23T07:46:43;23.80;98.30
15554;DHT22;7878;44.632;10.942;2023-05-23T07:49:09;23.90;98.20
15554;DHT22;7878;44.632;10.942;2023-05-23T07:51:34;23.90;98.10
15554;DHT22;7878;44.632;10.942;2023-05-23T07:54:00;23.90;98.10
15554;DHT22;7878;44.632;10.942;2023-05-23T07:56:26;24.00;98.00
15554;DHT22;7878;44.632;10.942;2023-05-23T07:58:51;24.10;98.20
15554;DHT22;7878;44.632;10.942;2023-05-23T08:01:17;24.10;98.30
15554;DHT22;7878;44.632;10.942;2023-05-23T08:03:43;24.10;98.10
15554;DHT22;7878;44.632;10.942;2023-05-23T08:06:09;24.20;98.20
15554;DHT22;7878;44.632;10.942;2023-05-23T08:08:35;24.20;98.00
15554;DHT22;7878;44.632;10.942;2023-05-23T08:11:00;24.30;98.10
15554;DHT22;7878;44.632;10.942;2023-05-23T08:13:26;24.30;97.70
15554;DHT22;7878;44.632;10.942;2023-05-23T08:15:53;24.30;97.90
15554;DHT22;7878;44.632;10.942;2023-05-23T08:18:18;24.40;97.80
15554;DHT22;7878;44.632;10.942;2023-05-23T08:20:44;24.40;97.80
15554;DHT22;7878;44.632;10.942;2023-05-23T08:23:10;24.50;97.90
15554;DHT22;7878;44.632;10.942;2023-05-23T08:25:37;24.50;97.70
15554;DHT22;7878;44.632;10.942;2023-05-23T08:28:03;24.50;97.60
15554;DHT22;7878;44.632;10.942;2023-05-23T08:30:29;24.60;97.60
15554;DHT22;7878;44.632;10.942;2023-05-23T08:32:55;24.60;97.80
15554;DHT22;7878;44.632;10.942;2023-05-23T08:35:21;24.60;97.50
15554;DHT22;7878;44.632;10.942;2023-05-23T08:37:47;24.60;97.60
15554;DHT22;7878;44.632;10.942;2023-05-23T08:40:21;24.70;97.60
15554;DHT22;7878;44.632;10.942;2023-05-23T08:42:47;24.70;97.40
15554;DHT22;7878;44.632;10.942;2023-05-23T08:45:13;24.80;97.70
15554;DHT22;7878;44.632;10.942;2023-05-23T08:47:42;24.80;97.80
15554;DHT22;7878;44.632;10.942;2023-05-23T08:50:11;24.80;97.40
15554;DHT22;7878;44.632;10.942;2023-05-23T08:53:03;24.90;97.70
15554;DHT22;7878;44.632;10.942;2023-05-23T08:55:28;24.90;97.70
15554;DHT22;7878;44.632;10.942;2023-05-23T08:57:55;25.00;97.70
15554;DHT22;7878;44.632;10.942;2023-05-23T09:00:22;25.00;97.80
15554;DHT22;7878;44.632;10.942;2023-05-23T09:02:49;25.10;97.80
15554;DHT22;7878;44.632;10.942;2023-05-23T09:05:15;25.10;97.90
15554;DHT22;7878;44.632;10.942;2023-05-23T09:07:44;25.10;98.00
15554;DHT22;7878;44.632;10.942;2023-05-23T09:10:12;25.20;97.80
15554;DHT22;7878;44.632;10.942;2023-05-23T09:12:39;25.20;97.90
15554;DHT22;7878;44.632;10.942;2023-05-23T09:15:05;25.30;98.10
15554;DHT22;7878;44.632;10.942;2023-05-23T09:17:35;25.40;98.10
15554;DHT22;7878;44.632;10.942;2023-05-23T09:20:02;25.40;97.70
15554;DHT22;7878;44.632;10.942;2023-05-23T09:22:30;25.40;98.00
15554;DHT22;7878;44.632;10.942;2023-05-23T09:24:56;25.50;97.90
15554;DHT22;7878;44.632;10.942;2023-05-23T09:27:22;25.50;97.70
15554;DHT22;7878;44.632;10.942;2023-05-23T09:29:50;25.60;97.80
15554;DHT22;7878;44.632;10.942;2023-05-23T09:32:18;25.60;97.50
15554;DHT22;7878;44.632;10.942;2023-05-23T09:35:04;25.70;97.70
15554;DHT22;7878;44.632;10.942;2023-05-23T09:37:41;25.80;96.50
15554;DHT22;7878;44.632;10.942;2023-05-23T09:40:09;25.70;96.20
15554;DHT22;7878;44.632;10.942;2023-05-23T09:42:44;25.70;97.20
15554;DHT22;7878;44.632;10.942;2023-05-23T09:45:11;25.80;97.00
15554;DHT22;7878;44.632;10.942;2023-05-23T09:47:36;25.90;97.40
15554;DHT22;7878;44.632;10.942;2023-05-23T09:50:03;26.00;97.20
15554;DHT22;7878;44.632;10.942;2023-05-23T09:52:37;26.00;97.20
15554;DHT22;7878;44.632;10.942;2023-05-23T09:55:04;26.00;96.40
15554;DHT22;7878;44.632;10.942;2023-05-23T09:57:33;26.10;97.10
15554;DHT22;7878;44.632;10.942;2023-05-23T10:00:00;26.10;97.10
15554;DHT22;7878;44.632;10.942;2023-05-23T10:05:19;26.60;96.40
15554;DHT22;7878;44.632;10.942;2023-05-23T10:07:47;27.00;96.60
15554;DHT22;7878;44.632;10.942;2023-05-23T10:10:12;27.20;96.70
15554;DHT22;7878;44.632;10.942;2023-05-23T10:12:42;27.40;96.60
15554;DHT22;7878;44.632;10.942;2023-05-23T10:15:12;27.30;96.10
15554;DHT22;7878;44.632;10.942;2023-05-23T10:18:11;27.30;96.20
15554;DHT22;7878;44.632;10.942;2023-05-23T10:20:42;27.30;94.80
15554;DHT22;7878;44.632;10.942;2023-05-23T10:23:12;27.20;95.80
15554;DHT22;7878;44.632;10.942;2023-05-23T10:25:38;27.20;95.80
15554;DHT22;7878;44.632;10.942;2023-05-23T10:28:05;27.20;96.30
15554;DHT22;7878;44.632;10.942;2023-05-23T10:30:31;27.20;94.20
15554;DHT22;7878;44.632;10.942;2023-05-23T10:32:59;27.20;95.40
15554;DHT22;7878;44.632;10.942;2023-05-23T10:38:06;27.20;94.70
15554;DHT22;7878;44.632;10.942;2023-05-23T10:43:33;27.20;92.90
15554;DHT22;7878;44.632;10.942;2023-05-23T10:46:01;27.30;92.80
15554;DHT22;7878;44.632;10.942;2023-05-23T10:48:41;27.40;94.10
15554;DHT22;7878;44.632;10.942;2023-05-23T10:51:08;27.30;91.10
15554;DHT22;7878;44.632;10.942;2023-05-23T10:53:39;27.40;93.80
15554;DHT22;7878;44.632;10.942;2023-05-23T10:56:09;27.50;94.10
15554;DHT22;7878;44.632;10.942;2023-05-23T10:58:38;27.60;94.30
15554;DHT22;7878;44.632;10.942;2023-05-23T11:01:08;27.70;93.90
15554;DHT22;7878;44.632;10.942;2023-05-23T11:09:20;28.10;87.80
15554;DHT22;7878;44.632;10.942;2023-05-23T11:12:05;28.30;90.10
15554;DHT22;7878;44.632;10.942;2023-05-23T11:14:32;28.50;88.90
15554;DHT22;7878;44.632;10.942;2023-05-23T11:19:37;28.90;93.10
15554;DHT22;7878;44.632;10.942;2023-05-23T11:22:07;29.00;92.00
15554;DHT22;7878;44.632;10.942;2023-05-23T11:24:52;29.20;92.80
15554;DHT22;7878;44.632;10.942;2023-05-23T11:27:31;29.40;85.50
15554;DHT22;7878;44.632;10.942;2023-05-23T11:32:34;29.20;87.20
15554;DHT22;7878;44.632;10.942;2023-05-23T11:35:02;29.10;90.80
15554;DHT22;7878;44.632;10.942;2023-05-23T11:37:29;28.90;90.80
15554;DHT22;7878;44.632;10.942;2023-05-23T11:39:56;28.80;90.90
15554;DHT22;7878;44.632;10.942;2023-05-23T11:42:21;28.80;89.80
15554;DHT22;7878;44.632;10.942;2023-05-23T11:44:49;28.80;89.90
15554;DHT22;7878;44.632;10.942;2023-05-23T11:47:15;28.80;91.00
15554;DHT22;7878;44.632;10.942;2023-05-23T11:49:44;28.80;90.10
15554;DHT22;7878;44.632;10.942;2023-05-23T11:52:11;28.80;90.10
15554;DHT22;7878;44.632;10.942;2023-05-23T11:54:39;28.80;90.50
15554;DHT22;7878;44.632;10.942;2023-05-23T11:57:06;28.80;89.50
15554;DHT22;7878;44.632;10.942;2023-05-23T11:59:33;28.70;88.00
15554;DHT22;7878;44.632;10.942;2023-05-23T12:02:00;28.60;88.60
15554;DHT22;7878;44.632;10.942;2023-05-23T12:04:26;28.60;90.20
15554;DHT22;7878;44.632;10.942;2023-05-23T12:06:52;28.70;89.70
15554;DHT22;7878;44.632;10.942;2023-05-23T12:09:18;28.60;90.10
15554;DHT22;7878;44.632;10.942;2023-05-23T12:11:44;28.70;90.50
15554;DHT22;7878;44.632;10.942;2023-05-23T12:14:15;28.80;89.10
15554;DHT22;7878;44.632;10.942;2023-05-23T12:16:43;28.70;88.10
15554;DHT22;7878;44.632;10.942;2023-05-23T12:19:10;28.80;86.40
15554;DHT22;7878;44.632;10.942;2023-05-23T12:26:56;28.70;84.30
15554;DHT22;7878;44.632;10.942;2023-05-23T12:29:28;28.70;86.40
15554;DHT22;7878;44.632;10.942;2023-05-23T12:31:54;28.70;81.80
15554;DHT22;7878;44.632;10.942;2023-05-23T12:34:22;28.80;85.40
15554;DHT22;7878;44.632;10.942;2023-05-23T12:36:48;28.70;85.90
15554;DHT22;7878;44.632;10.942;2023-05-23T12:39:14;28.70;86.30
15554;DHT22;7878;44.632;10.942;2023-05-23T12:41:44;28.80;86.10
15554;DHT22;7878;44.632;10.942;2023-05-23T12:44:10;28.80;79.70
15554;DHT22;7878;44.632;10.942;2023-05-23T12:46:39;28.80;84.60
15554;DHT22;7878;44.632;10.942;2023-05-23T12:49:05;28.80;83.60
15554;DHT22;7878;44.632;10.942;2023-05-23T12:51:30;28.70;83.00
15554;DHT22;7878;44.632;10.942;2023-05-23T12:53:56;28.80;83.20
15554;DHT22;7878;44.632;10.942;2023-05-23T12:56:22;28.70;81.20
15554;DHT22;7878;44.632;10.942;2023-05-23T12:58:48;28.80;82.50
15554;DHT22;7878;44.632;10.942;2023-05-23T13:01:13;28.80;81.10
15554;DHT22;7878;44.632;10.942;2023-05-23T13:03:39;28.80;82.60
15554;DHT22;7878;44.632;10.942;2023-05-23T13:06:05;28.80;81.00
15554;DHT22;7878;44.632;10.942;2023-05-23T13:08:31;28.80;81.80
15554;DHT22;7878;44.632;10.942;2023-05-23T13:10:57;28.80;81.80
15554;DHT22;7878;44.632;10.942;2023-05-23T13:13:23;28.80;82.20
15554;DHT22;7878;44.632;10.942;2023-05-23T13:15:49;28.80;83.70
15554;DHT22;7878;44.632;10.942;2023-05-23T13:18:15;28.80;83.60
15554;DHT22;7878;44.632;10.942;2023-05-23T13:20:41;28.80;83.20
15554;DHT22;7878;44.632;10.942;2023-05-23T13:23:07;28.80;81.50
15554;DHT22;7878;44.632;10.942;2023-05-23T13:25:34;28.80;82.20
15554;DHT22;7878;44.632;10.942;2023-05-23T13:28:00;28.80;78.70
15554;DHT22;7878;44.632;10.942;2023-05-23T13:30:27;28.80;80.00
15554;DHT22;7878;44.632;10.942;2023-05-23T13:32:52;28.80;79.40
15554;DHT22;7878;44.632;10.942;2023-05-23T13:35:18;28.80;76.60
15554;DHT22;7878;44.632;10.942;2023-05-23T13:37:44;28.80;76.30
15554;DHT22;7878;44.632;10.942;2023-05-23T13:40:17;28.80;76.40
15554;DHT22;7878;44.632;10.942;2023-05-23T13:42:43;28.80;76.20
15554;DHT22;7878;44.632;10.942;2023-05-23T13:45:09;28.80;76.90
15554;DHT22;7878;44.632;10.942;2023-05-23T13:47:35;28.90;78.40
15554;DHT22;7878;44.632;10.942;2023-05-23T13:50:03;28.90;78.80
15554;DHT22;7878;44.632;10.942;2023-05-23T13:52:29;28.80;78.60
15554;DHT22;7878;44.632;10.942;2023-05-23T13:54:55;28.80;75.20
15554;DHT22;7878;44.632;10.942;2023-05-23T13:57:21;28.80;78.40
15554;DHT22;7878;44.632;10.942;2023-05-23T13:59:46;28.70;78.80
15554;DHT22;7878;44.632;10.942;2023-05-23T14:02:12;28.80;76.50
15554;DHT22;7878;44.632;10.942;2023-05-23T14:04:37;28.70;78.40
15554;DHT22;7878;44.632;10.942;2023-05-23T14:07:03;28.70;77.00
15554;DHT22;7878;44.632;10.942;2023-05-23T14:09:29;28.70;78.70
15554;DHT22;7878;44.632;10.942;2023-05-23T14:11:54;28.80;78.00
15554;DHT22;7878;44.632;10.942;2023-05-23T14:14:20;28.80;76.80
15554;DHT22;7878;44.632;10.942;2023-05-23T14:16:48;28.80;78.30
15554;DHT22;7878;44.632;10.942;2023-05-23T14:19:14;28.80;77.20
15554;DHT22;7878;44.632;10.942;2023-05-23T14:21:40;28.80;78.50
15554;DHT22;7878;44.632;10.942;2023-05-23T14:24:05;28.80;79.30
15554;DHT22;7878;44.632;10.942;2023-05-23T14:26:31;28.80;78.60
15554;DHT22;7878;44.632;10.942;2023-05-23T14:28:57;28.80;77.90
15554;DHT22;7878;44.632;10.942;2023-05-23T14:31:23;28.80;76.80
15554;DHT22;7878;44.632;10.942;2023-05-23T14:33:48;28.80;77.70
15554;DHT22;7878;44.632;10.942;2023-05-23T14:36:15;28.70;76.70
15554;DHT22;7878;44.632;10.942;2023-05-23T14:38:41;28.70;78.50
15554;DHT22;7878;44.632;10.942;2023-05-23T14:41:10;28.70;79.00
15554;DHT22;7878;44.632;10.942;2023-05-23T14:43:35;28.70;78.40
15554;DHT22;7878;44.632;10.942;2023-05-23T14:46:01;28.80;78.10
15554;DHT22;7878;44.632;10.942;2023-05-23T14:48:27;28.80;78.00
15554;DHT22;7878;44.632;10.942;2023-05-23T14:50:52;28.80;74.70
15554;DHT22;7878;44.632;10.942;2023-05-23T14:53:18;28.80;76.20
15554;DHT22;7878;44.632;10.942;2023-05-23T14:55:46;28.70;74.70
15554;DHT22;7878;44.632;10.942;2023-05-23T14:58:12;28.70;77.40
15554;DHT22;7878;44.632;10.942;2023-05-23T15:00:38;28.70;77.80
15554;DHT22;7878;44.632;10.942;2023-05-23T15:03:05;28.70;78.10
15554;DHT22;7878;44.632;10.942;2023-05-23T15:05:30;28.70;77.30
15554;DHT22;7878;44.632;10.942;2023-05-23T15:07:56;28.70;78.00
15554;DHT22;7878;44.632;10.942;2023-05-23T15:10:22;28.80;77.70
15554;DHT22;7878;44.632;10.942;2023-05-23T15:12:47;28.80;77.80
15554;DHT22;7878;44.632;10.942;2023-05-23T15:15:13;28.80;76.80
15554;DHT22;7878;44.632;10.942;2023-05-23T15:17:40;28.80;77.50
15554;DHT22;7878;44.632;10.942;2023-05-23T15:20:07;28.80;77.10
15554;DHT22;7878;44.632;10.942;2023-05-23T15:22:32;28.80;77.70
15554;DHT22;7878;44.632;10.942;2023-05-23T15:24:58;28.80;77.40
15554;DHT22;7878;44.632;10.942;2023-05-23T15:27:25;28.70;76.10
15554;DHT22;7878;44.632;10.942;2023-05-23T15:29:50;28.70;77.20
15554;DHT22;7878;44.632;10.942;2023-05-23T15:32:16;28.70;77.30
15554;DHT22;7878;44.632;10.942;2023-05-23T15:34:41;28.70;76.90
15554;DHT22;7878;44.632;10.942;2023-05-23T15:37:08;28.60;77.30
15554;DHT22;7878;44.632;10.942;2023-05-23T15:39:33;28.60;77.40
15554;DHT22;7878;44.632;10.942;2023-05-23T15:42:00;28.60;76.10
15554;DHT22;7878;44.632;10.942;2023-05-23T15:44:25;28.60;75.00
15554;DHT22;7878;44.632;10.942;2023-05-23T15:46:51;28.60;76.60
15554;DHT22;7878;44.632;10.942;2023-05-23T15:49:17;28.50;75.20
15554;DHT22;7878;44.632;10.942;2023-05-23T15:51:44;28.60;76.60
15554;DHT22;7878;44.632;10.942;2023-05-23T15:54:10;28.50;74.40
15554;DHT22;7878;44.632;10.942;2023-05-23T15:56:36;28.50;75.30
15554;DHT22;7878;44.632;10.942;2023-05-23T15:59:02;28.50;76.00
15554;DHT22;7878;44.632;10.942;2023-05-23T16:01:28;28.50;72.80